createdAt,value
2023-03-16T00:01:04.591Z,1.49
2023-03-16T00:03:36.972Z,1.40
2023-03-16T00:06:09.664Z,1.33
2023-03-16T00:08:43.525Z,1.34
2023-03-16T00:11:16.145Z,1.30
2023-03-16T00:13:47.748Z,1.24
2023-03-16T00:16:19.695Z,1.22
2023-03-16T00:18:51.156Z,1.15
2023-03-16T00:21:22.919Z,1.22
2023-03-16T00:23:54.918Z,1.26
2023-03-16T00:26:28.229Z,1.22
2023-03-16T00:28:59.830Z,1.24
2023-03-16T00:31:34.108Z,1.22
2023-03-16T00:34:05.827Z,1.30
2023-03-16T00:36:38.626Z,1.34
2023-03-16T00:39:11.805Z,1.28
2023-03-16T00:41:43.404Z,1.25
2023-03-16T00:44:14.781Z,1.22
2023-03-16T00:46:46.281Z,1.20
2023-03-16T00:49:17.770Z,1.15
2023-03-16T00:51:49.355Z,1.09
2023-03-16T00:54:22.421Z,0.98
2023-03-16T00:56:54.139Z,1.02
2023-03-16T00:59:26.680Z,1.08
2023-03-16T01:01:58.833Z,1.04
2023-03-16T01:04:31.301Z,0.98
2023-03-16T01:07:03.224Z,0.98
2023-03-16T01:09:37.252Z,1.03
2023-03-16T01:12:11.997Z,0.95
2023-03-16T01:14:46.286Z,0.91
2023-03-16T01:17:19.204Z,0.87
2023-03-16T01:20:12.264Z,0.82
2023-03-16T01:22:43.853Z,0.94
2023-03-16T01:25:16.364Z,1.02
2023-03-16T01:27:47.952Z,0.97
2023-03-16T01:30:19.514Z,0.91
2023-03-16T01:32:51.438Z,0.83
2023-03-16T01:35:23.156Z,0.80
2023-03-16T01:37:54.824Z,0.74
2023-03-16T01:40:26.595Z,0.78
2023-03-16T01:43:06.432Z,0.76
2023-03-16T01:46:23.847Z,0.73
2023-03-16T01:49:01.434Z,0.60
2023-03-16T01:51:37.449Z,0.60
2023-03-16T01:54:15.407Z,0.58
2023-03-16T01:56:52.959Z,0.70
2023-03-16T01:59:29.248Z,0.68
2023-03-16T02:02:00.764Z,0.67
2023-03-16T02:04:43.813Z,0.64
2023-03-16T02:07:18.724Z,0.54
2023-03-16T02:09:50.641Z,0.60
2023-03-16T02:12:23.205Z,0.60
2023-03-16T02:14:55.371Z,0.55
2023-03-16T02:17:30.042Z,0.46
2023-03-16T02:20:16.213Z,0.46
2023-03-16T02:22:50.753Z,0.52
2023-03-16T02:25:28.251Z,0.51
2023-03-16T02:28:07.410Z,0.45
2023-03-16T02:30:39.186Z,0.45
2023-03-16T02:33:11.518Z,0.50
2023-03-16T02:35:43.154Z,0.44
2023-03-16T02:38:14.870Z,0.48
2023-03-16T02:40:47.612Z,0.43
2023-03-16T02:43:25.141Z,0.45
2023-03-16T02:46:00.153Z,0.42
2023-03-16T02:48:34.786Z,0.39
2023-03-16T02:51:06.468Z,0.47
2023-03-16T02:53:39.837Z,0.48
2023-03-16T02:56:11.651Z,0.45
2023-03-16T02:58:43.040Z,0.30
2023-03-16T03:01:14.523Z,0.30
2023-03-16T03:03:46.178Z,0.34
2023-03-16T03:06:17.990Z,0.27
2023-03-16T03:08:49.504Z,0.17
2023-03-16T03:11:21.248Z,0.12
2023-03-16T03:13:52.740Z,0.12
2023-03-16T03:16:24.495Z,0.06
2023-03-16T03:18:55.986Z,0.10
2023-03-16T03:21:27.633Z,0.05
2023-03-16T03:23:59.191Z,0.05
2023-03-16T03:26:30.750Z,0.06
2023-03-16T03:29:02.765Z,0.02
2023-03-16T03:31:34.284Z,0.04
2023-03-16T03:34:07.002Z,0.10
2023-03-16T03:36:38.891Z,0.09
2023-03-16T03:39:10.541Z,0.15
2023-03-16T03:41:42.050Z,0.14
2023-03-16T03:44:13.694Z,0.12
2023-03-16T03:46:45.419Z,0.18
2023-03-16T03:49:17.389Z,0.08
2023-03-16T03:51:49.061Z,0.10
2023-03-16T03:54:21.008Z,0.16
2023-03-16T03:56:52.797Z,0.13
2023-03-16T03:59:24.334Z,0.01
2023-03-16T04:01:56.040Z,0.04
2023-03-16T04:04:27.811Z,0.05
2023-03-16T04:06:59.468Z,0.16
2023-03-16T04:09:34.265Z,0.17
2023-03-16T04:12:05.163Z,0.11
2023-03-16T04:14:37.035Z,0.19
2023-03-16T04:17:08.919Z,0.16
2023-03-16T04:19:40.852Z,0.18
2023-03-16T04:22:13.482Z,0.04
2023-03-16T04:24:45.636Z,-0.08
2023-03-16T04:34:56.198Z,0.42
2023-03-16T04:37:29.163Z,0.22
2023-03-16T04:40:10.986Z,0.04
2023-03-16T04:42:44.537Z,-0.08
2023-03-16T04:45:21.427Z,-0.08
2023-03-16T04:47:55.062Z,-0.09
2023-03-16T04:50:27.286Z,-0.14
2023-03-16T04:53:02.710Z,-0.18
2023-03-16T04:55:34.588Z,-0.25
2023-03-16T04:58:09.132Z,-0.27
2023-03-16T05:00:43.260Z,-0.25
2023-03-16T05:03:15.472Z,-0.23
2023-03-16T05:06:12.359Z,-0.25
2023-03-16T05:08:45.609Z,-0.27
2023-03-16T05:11:22.416Z,-0.19
2023-03-16T05:14:09.138Z,-0.18
2023-03-16T05:16:49.286Z,-0.24
2023-03-16T05:19:21.120Z,-0.02
2023-03-16T05:21:54.837Z,0.04
2023-03-16T05:24:26.555Z,0.04
2023-03-16T05:26:59.521Z,0.07
2023-03-16T05:29:31.781Z,0.29
2023-03-16T05:32:04.409Z,0.73
2023-03-16T05:34:37.380Z,1.30
2023-03-16T05:37:09.354Z,2.01
2023-03-16T05:39:45.789Z,2.77
2023-03-16T05:42:17.710Z,3.35
2023-03-16T05:44:49.618Z,3.86
2023-03-16T05:47:21.614Z,4.28
2023-03-16T05:49:55.598Z,4.74
2023-03-16T05:52:27.814Z,5.25
2023-03-16T05:54:59.501Z,5.71
2023-03-16T05:57:32.740Z,6.20
2023-03-16T06:00:11.628Z,6.59
2023-03-16T06:02:44.123Z,7.04
2023-03-16T06:05:16.700Z,7.46
2023-03-16T06:07:50.793Z,7.71
2023-03-16T06:10:23.253Z,7.89
2023-03-16T06:12:55.246Z,8.15
2023-03-16T06:15:42.292Z,8.36
2023-03-16T06:18:14.000Z,8.48
2023-03-16T06:20:47.459Z,8.72
2023-03-16T06:23:21.956Z,8.89
2023-03-16T06:25:56.731Z,9.00
2023-03-16T06:28:26.700Z,9.22
2023-03-16T06:30:59.844Z,9.49
2023-03-16T06:33:31.923Z,9.74
2023-03-16T06:36:03.563Z,9.73
2023-03-16T06:38:35.163Z,9.72
2023-03-16T06:41:06.937Z,9.80
2023-03-16T06:43:38.914Z,9.90
2023-03-16T06:46:11.559Z,10.00
2023-03-16T06:48:43.822Z,10.02
2023-03-16T06:51:16.867Z,10.15
2023-03-16T06:53:48.915Z,10.33
2023-03-16T06:56:20.869Z,10.41
2023-03-16T06:58:52.780Z,10.36
2023-03-16T07:01:25.062Z,10.34
2023-03-16T07:04:11.565Z,10.33
2023-03-16T07:06:55.362Z,10.38
2023-03-16T07:09:35.280Z,10.50
2023-03-16T07:12:16.317Z,10.55
2023-03-16T07:14:52.432Z,10.55
2023-03-16T07:17:26.881Z,10.61
2023-03-16T07:19:58.684Z,10.78
2023-03-16T07:22:30.425Z,10.79
2023-03-16T07:25:13.061Z,10.85
2023-03-16T07:27:48.995Z,10.84
2023-03-16T07:30:21.451Z,10.87
2023-03-16T07:32:55.991Z,10.88
2023-03-16T07:35:30.198Z,10.89
2023-03-16T07:38:07.975Z,10.91
2023-03-16T07:40:41.425Z,11.09
2023-03-16T07:43:13.612Z,11.22
2023-03-16T07:45:49.130Z,11.22
2023-03-16T07:48:21.598Z,11.23
2023-03-16T07:51:07.588Z,11.24
2023-03-16T07:53:44.535Z,11.15
2023-03-16T07:56:16.260Z,11.12
2023-03-16T07:58:47.984Z,11.20
2023-03-16T08:01:19.732Z,11.18
2023-03-16T08:03:52.035Z,10.99
2023-03-16T08:06:25.793Z,10.91
2023-03-16T08:08:57.641Z,10.86
2023-03-16T08:11:30.790Z,10.87
2023-03-16T08:14:02.499Z,10.72
2023-03-16T08:16:34.322Z,10.69
2023-03-16T08:19:05.930Z,10.78
2023-03-16T08:21:53.052Z,10.79
2023-03-16T08:24:29.864Z,10.79
2023-03-16T08:27:02.227Z,10.71
2023-03-16T08:29:34.794Z,10.69
2023-03-16T08:32:07.508Z,10.98
2023-03-16T08:34:40.428Z,11.05
2023-03-16T08:37:12.754Z,10.95
2023-03-16T08:39:45.843Z,10.88
2023-03-16T08:42:17.967Z,10.87
2023-03-16T08:44:49.704Z,10.57
2023-03-16T08:47:21.405Z,10.17
2023-03-16T08:49:55.996Z,9.94
2023-03-16T08:52:27.810Z,9.74
2023-03-16T08:55:03.857Z,9.66
2023-03-16T08:57:36.146Z,9.59
2023-03-16T09:00:15.309Z,9.61
2023-03-16T09:02:48.709Z,9.73
2023-03-16T09:05:20.896Z,9.83
2023-03-16T09:07:54.727Z,9.88
2023-03-16T09:10:28.027Z,9.99
2023-03-16T09:12:59.996Z,10.09
2023-03-16T09:15:33.405Z,10.13
2023-03-16T09:18:06.043Z,10.08
2023-03-16T09:21:17.657Z,10.03
2023-03-16T09:23:49.484Z,10.14
2023-03-16T09:26:21.701Z,10.20
2023-03-16T09:28:56.614Z,10.10
2023-03-16T09:31:28.656Z,10.01
2023-03-16T09:34:00.559Z,9.92
2023-03-16T09:36:33.984Z,9.90
2023-03-16T09:39:08.468Z,9.93
2023-03-16T09:41:48.971Z,10.01
2023-03-16T09:44:34.661Z,10.16
2023-03-16T09:47:09.011Z,10.22
2023-03-16T09:49:45.939Z,10.35
2023-03-16T09:52:28.617Z,10.32
2023-03-16T09:55:06.291Z,10.30
2023-03-16T09:58:00.439Z,10.51
2023-03-16T10:01:01.018Z,10.56
2023-03-16T10:04:13.865Z,10.75
2023-03-16T10:06:57.213Z,10.72
2023-03-16T10:09:39.983Z,10.76
2023-03-16T10:12:15.072Z,10.70
2023-03-16T10:14:51.314Z,10.64
2023-03-16T10:17:33.831Z,10.45
2023-03-16T10:20:10.753Z,10.34
2023-03-16T10:22:51.343Z,10.18
2023-03-16T10:25:29.206Z,9.99
2023-03-16T10:28:00.795Z,9.99
2023-03-16T10:30:35.653Z,10.10
2023-03-16T10:33:39.833Z,10.18
2023-03-16T10:36:27.315Z,10.08
2023-03-16T10:39:05.834Z,9.97
2023-03-16T10:41:42.198Z,9.79
2023-03-16T10:44:17.080Z,9.60
2023-03-16T10:46:55.039Z,9.36
2023-03-16T10:50:18.183Z,9.38
2023-03-16T10:56:23.173Z,9.73
2023-03-16T11:02:22.720Z,9.78
2023-03-16T11:04:59.622Z,9.90
2023-03-16T11:07:42.381Z,9.84
2023-03-16T11:10:40.517Z,9.87
2023-03-16T11:13:46.762Z,9.75
2023-03-16T11:16:54.905Z,9.64
2023-03-16T11:19:30.706Z,9.55
2023-03-16T11:22:07.157Z,9.43
2023-03-16T11:24:46.935Z,9.27
2023-03-16T11:27:26.516Z,9.13
2023-03-16T11:30:12.211Z,9.02
2023-03-16T11:32:49.506Z,9.02
2023-03-16T11:35:39.895Z,9.02
2023-03-16T11:38:17.931Z,9.14
2023-03-16T11:40:58.525Z,9.18
2023-03-16T11:43:53.048Z,9.12
2023-03-16T11:46:29.494Z,9.17
2023-03-16T11:49:54.981Z,9.05
2023-03-16T11:53:16.188Z,8.97
2023-03-16T11:56:01.786Z,9.21
2023-03-16T11:58:48.447Z,9.20
2023-03-16T12:01:25.161Z,9.15
2023-03-16T12:04:22.119Z,9.22
2023-03-16T12:07:35.463Z,9.45
2023-03-16T12:10:26.537Z,9.62
2023-03-16T12:13:35.150Z,9.55
2023-03-16T12:16:39.098Z,9.54
2023-03-16T12:19:54.405Z,9.58
2023-03-16T12:23:06.544Z,9.66
2023-03-16T12:25:43.104Z,9.90
2023-03-16T12:28:24.082Z,9.77
2023-03-16T12:31:03.871Z,9.49
2023-03-16T12:34:00.846Z,9.28
2023-03-16T12:36:57.293Z,9.23
2023-03-16T12:40:38.791Z,9.26
2023-03-16T12:43:54.479Z,9.34
2023-03-16T12:47:03.510Z,9.24
2023-03-16T12:51:13.364Z,9.14
2023-03-16T12:53:42.583Z,9.29
2023-03-16T12:56:18.003Z,9.24
2023-03-16T12:58:56.711Z,9.07
2023-03-16T13:01:39.883Z,8.99
2023-03-16T13:04:16.446Z,8.88
2023-03-16T13:06:51.097Z,8.92
2023-03-16T13:09:38.004Z,8.95
2023-03-16T13:12:33.137Z,9.07
2023-03-16T13:15:17.586Z,9.18
2023-03-16T13:17:52.976Z,9.18
2023-03-16T13:20:32.819Z,9.19
2023-03-16T13:24:35.005Z,9.10
2023-03-16T13:27:43.605Z,9.20
2023-03-16T13:33:54.668Z,9.24
2023-03-16T13:37:11.563Z,9.22
2023-03-16T13:39:56.440Z,9.19
2023-03-16T13:43:27.482Z,9.12
2023-03-16T13:49:11.155Z,9.06
2023-03-16T13:55:48.774Z,9.15
2023-03-16T13:56:02.932Z,9.10
2023-03-16T13:58:35.393Z,9.16
2023-03-16T14:01:19.827Z,9.08
2023-03-16T14:03:52.792Z,8.93
2023-03-16T14:06:27.975Z,8.89
2023-03-16T14:09:03.161Z,8.97
2023-03-16T14:11:35.373Z,8.98
2023-03-16T14:14:18.295Z,8.86
2023-03-16T14:16:50.055Z,8.76
2023-03-16T14:19:26.203Z,8.74
2023-03-16T14:21:58.226Z,8.79
2023-03-16T14:24:35.042Z,8.71
2023-03-16T14:27:22.792Z,8.57
2023-03-16T14:30:07.183Z,8.55
2023-03-16T14:32:55.488Z,8.55
2023-03-16T14:35:30.788Z,8.40
2023-03-16T14:38:23.704Z,8.45
2023-03-16T14:41:01.153Z,8.53
2023-03-16T14:43:36.163Z,8.45
2023-03-16T14:46:09.594Z,8.31
2023-03-16T14:48:41.617Z,8.12
2023-03-16T14:51:17.246Z,7.97
2023-03-16T14:53:49.008Z,7.96
2023-03-16T14:56:22.999Z,8.03
2023-03-16T14:58:54.776Z,7.96
2023-03-16T15:01:37.425Z,7.88
2023-03-16T15:04:09.805Z,7.79
2023-03-16T15:07:18.975Z,7.85
2023-03-16T15:10:01.028Z,7.92
2023-03-16T15:12:52.428Z,7.92
2023-03-16T15:15:29.035Z,7.81
2023-03-16T15:18:01.864Z,7.77
2023-03-16T15:20:37.816Z,7.67
2023-03-16T15:23:17.527Z,7.59
2023-03-16T15:25:58.693Z,7.59
2023-03-16T15:28:33.469Z,7.49
2023-03-16T15:31:17.486Z,7.38
2023-03-16T15:33:57.765Z,7.35
2023-03-16T15:36:46.629Z,7.29
2023-03-16T15:39:26.561Z,7.25
2023-03-16T15:41:58.825Z,7.18
2023-03-16T15:44:30.910Z,7.15
2023-03-16T15:47:03.508Z,7.05
2023-03-16T15:49:45.068Z,6.93
2023-03-16T15:52:29.095Z,6.80
2023-03-16T15:55:04.861Z,6.94
2023-03-16T15:57:37.221Z,6.98
2023-03-16T16:00:18.718Z,6.99
2023-03-16T16:03:14.374Z,6.89
2023-03-16T16:06:18.874Z,6.90
2023-03-16T16:09:53.383Z,6.97
2023-03-16T16:19:49.741Z,7.21
2023-03-16T16:22:23.233Z,7.00
2023-03-16T16:26:04.951Z,6.92
2023-03-16T16:32:44.466Z,6.69
2023-03-16T16:47:46.550Z,6.76
2023-03-16T16:50:21.550Z,6.83
2023-03-16T16:53:30.995Z,6.93
2023-03-16T16:56:38.855Z,6.91
2023-03-16T16:59:55.424Z,6.75
2023-03-16T17:03:02.351Z,6.72
2023-03-16T17:09:53.991Z,6.70
2023-03-16T17:20:08.928Z,6.78
2023-03-16T17:20:28.618Z,6.88
2023-03-16T17:29:01.418Z,6.74
2023-03-16T17:33:37.963Z,6.60
2023-03-16T17:36:13.401Z,6.47
2023-03-16T17:39:09.924Z,6.39
2023-03-16T17:41:44.984Z,6.43
2023-03-16T17:44:16.801Z,6.41
2023-03-16T17:46:52.030Z,6.37
2023-03-16T17:49:29.262Z,6.32
2023-03-16T17:52:13.241Z,6.33
2023-03-16T17:54:48.064Z,6.36
2023-03-16T17:57:28.980Z,6.33
2023-03-16T18:00:01.532Z,6.30
2023-03-16T18:02:48.223Z,6.31
2023-03-16T18:05:44.930Z,6.27
2023-03-16T18:08:30.329Z,6.28
2023-03-16T18:11:04.358Z,6.25
2023-03-16T18:13:45.503Z,6.29
2023-03-16T18:16:27.633Z,6.23
2023-03-16T18:19:08.080Z,6.38
2023-03-16T18:21:38.772Z,6.35
2023-03-16T18:24:16.770Z,6.24
2023-03-16T18:26:49.736Z,6.19
2023-03-16T18:29:23.101Z,6.18
2023-03-16T18:32:05.073Z,6.08
2023-03-16T18:34:41.941Z,6.03
2023-03-16T18:37:24.289Z,5.98
2023-03-16T18:40:03.383Z,5.99
2023-03-16T18:42:34.902Z,6.08
2023-03-16T18:45:12.032Z,5.99
2023-03-16T18:47:48.268Z,5.88
2023-03-16T18:50:29.077Z,5.91
2023-03-16T18:53:02.512Z,5.93
2023-03-16T18:55:35.512Z,6.01
2023-03-16T18:58:19.718Z,5.99
2023-03-16T19:00:56.659Z,6.07
2023-03-16T19:03:32.111Z,6.01
2023-03-16T19:06:18.178Z,5.90
2023-03-16T19:09:16.593Z,5.86
2023-03-16T19:31:00.182Z,6.01
2023-03-16T19:38:19.612Z,5.86
2023-03-16T19:48:54.234Z,5.63
2023-03-16T19:55:05.454Z,5.52
2023-03-16T19:57:38.562Z,5.22
2023-03-16T20:00:25.580Z,5.08
2023-03-16T20:03:01.102Z,5.00
2023-03-16T20:05:34.170Z,4.96
2023-03-16T20:08:19.510Z,4.82
2023-03-16T20:10:59.966Z,4.79
2023-03-16T20:13:35.064Z,4.67
2023-03-16T20:16:27.551Z,4.51
2023-03-16T20:22:10.842Z,4.40
2023-03-16T20:24:44.130Z,4.26
2023-03-16T20:27:16.019Z,4.14
2023-03-16T20:29:53.101Z,4.09
2023-03-16T20:32:30.679Z,3.97
2023-03-16T20:35:02.430Z,3.95
2023-03-16T20:37:35.467Z,3.89
2023-03-16T20:40:09.716Z,3.96
2023-03-16T20:42:43.659Z,4.06
2023-03-16T20:45:30.853Z,3.99
2023-03-16T20:48:12.834Z,3.95
2023-03-16T20:50:48.837Z,3.86
2023-03-16T20:53:24.469Z,3.80
2023-03-16T20:56:04.823Z,3.79
2023-03-16T20:58:38.344Z,3.69
2023-03-16T21:01:17.754Z,3.64
2023-03-16T21:03:53.301Z,3.58
2023-03-16T21:09:50.247Z,3.69
2023-03-16T21:12:36.737Z,3.60
2023-03-16T21:15:18.419Z,3.44
2023-03-16T21:17:52.995Z,3.32
2023-03-16T21:20:24.878Z,3.20
2023-03-16T21:22:54.134Z,3.09
2023-03-16T21:25:29.345Z,3.20
2023-03-16T21:28:03.141Z,3.24
2023-03-16T21:30:45.274Z,3.07
2023-03-16T21:33:26.032Z,3.15
2023-03-16T21:35:57.477Z,3.13
2023-03-16T21:38:28.764Z,2.94
2023-03-16T21:40:58.834Z,2.93
2023-03-16T21:43:31.342Z,2.88
2023-03-16T21:46:00.514Z,2.75
2023-03-16T21:48:36.194Z,2.66
2023-03-16T21:51:11.133Z,2.57
2023-03-16T21:53:42.083Z,2.51
2023-03-16T21:56:32.404Z,2.46
2023-03-16T21:59:01.363Z,2.38
2023-03-16T22:01:34.186Z,2.57
2023-03-16T22:04:05.590Z,2.51
2023-03-16T22:06:34.851Z,2.36
2023-03-16T22:09:04.297Z,2.28
2023-03-16T22:11:33.426Z,2.28
2023-03-16T22:14:02.510Z,2.10
2023-03-16T22:16:41.865Z,1.97
2023-03-16T22:19:32.100Z,1.90
2023-03-16T22:22:01.641Z,2.00
2023-03-16T22:24:36.668Z,1.92
2023-03-16T22:27:16.700Z,1.79
2023-03-16T22:29:45.804Z,1.86
2023-03-16T22:32:22.193Z,1.85
2023-03-16T22:34:55.531Z,1.75
2023-03-16T22:37:28.815Z,1.77
2023-03-16T22:39:58.206Z,1.76
2023-03-16T22:42:32.488Z,1.66
2023-03-16T22:45:01.875Z,1.62
2023-03-16T22:47:32.460Z,1.49
2023-03-16T22:50:10.169Z,1.45
2023-03-16T22:52:39.360Z,1.35
2023-03-16T22:55:16.042Z,1.33
2023-03-16T22:57:47.189Z,1.24
2023-03-16T23:00:21.843Z,1.31
2023-03-16T23:02:51.133Z,1.48
2023-03-16T23:05:24.779Z,1.52
2023-03-16T23:07:54.754Z,1.41
2023-03-16T23:10:27.907Z,1.35
2023-03-16T23:12:59.966Z,1.35
2023-03-16T23:15:31.103Z,1.32
2023-03-16T23:18:00.326Z,1.18
2023-03-16T23:20:32.235Z,1.18
2023-03-16T23:23:01.230Z,1.17
2023-03-16T23:25:30.328Z,1.23
2023-03-16T23:28:01.293Z,1.20
2023-03-16T23:30:31.665Z,1.16
2023-03-16T23:33:00.946Z,1.19
2023-03-16T23:35:31.417Z,1.16
2023-03-16T23:38:00.581Z,1.11
2023-03-16T23:40:30.401Z,1.16
2023-03-16T23:43:01.641Z,1.09
2023-03-16T23:45:34.895Z,1.09
2023-03-16T23:48:08.054Z,1.03
2023-03-16T23:50:37.997Z,1.05
2023-03-16T23:53:13.317Z,1.03
2023-03-16T23:55:43.262Z,0.93
2023-03-16T23:58:13.349Z,0.94
